Clark, Texas
Current Conditions -  °F | °C
As of 7:15 AM on Monday 22 Dec 2014 (Local Time) from K6R3 Reporting Station
Moderate Fog Moderate Fog  
Wind Chill: 59°   Ceiling: 300
Heat Index: 59°   Visibility: 0.5mi
Dew Point: 59°   Wind: 7mph
Humidity: 99%   Direction: 170°S
Pressure: 29.76"   Gusts: NA
Location:  30.2945°N, 94.9711°W
Report Text: K6R3 221315Z AUTO 17006KT 1/2SM FG OVC003 15/15 A2976 RMK AO2 T01500148
Loading
Personal Weather Stations






























Interactive Weather Map New forecast layout! Learn more

10-Day Weather Forecast

Advertisements
Track Severe Weather on mobile